Time,TemperatureF,DewpointF,PressureIn,WindDirection,WindDirectionDegrees,WindSpeedMPH,WindSpeedGustMPH,Humidity,HourlyPrecipIn,Conditions,Clouds,dailyrainin,SoftwareType,DateUTC
2013-03-23 00:00:00,22.1,17.5,30.06,NNW,333,0.0,2.0,82,0.00,,---,0.00,VWS V13.01,2013-03-23 04:00:00,
2013-03-23 00:05:00,22.0,17.6,30.06,NNW,333,0.0,1.0,83,0.00,,---,0.00,VWS V13.01,2013-03-23 04:05:00,
2013-03-23 00:10:00,21.8,17.4,30.06,NNW,333,0.0,1.0,83,0.00,,---,0.00,VWS V13.01,2013-03-23 04:10:00,
2013-03-23 00:15:00,21.8,18.0,30.06,NNW,333,0.0,1.0,85,0.00,,---,0.00,VWS V13.01,2013-03-23 04:15:00,
2013-03-23 00:20:00,21.8,18.0,30.06,NNW,333,0.0,1.0,85,0.00,,---,0.00,VWS V13.01,2013-03-23 04:20:00,
2013-03-23 00:25:00,21.7,17.9,30.06,NNW,333,0.0,1.0,85,0.00,,---,0.00,VWS V13.01,2013-03-23 04:25:00,
2013-03-23 00:30:00,21.6,17.8,30.06,NNW,333,0.0,2.0,85,0.00,,---,0.00,VWS V13.01,2013-03-23 04:30:00,
2013-03-23 00:35:00,21.6,17.8,30.06,NNW,333,0.0,2.0,85,0.00,,---,0.00,VWS V13.01,2013-03-23 04:35:00,
2013-03-23 00:40:00,21.5,17.7,30.06,NNW,333,0.0,2.0,85,0.00,,---,0.00,VWS V13.01,2013-03-23 04:40:00,
2013-03-23 00:45:00,21.5,18.0,30.06,NNW,333,0.0,2.0,86,0.00,,---,0.00,VWS V13.01,2013-03-23 04:45:00,
2013-03-23 00:50:00,21.4,17.9,30.06,NNW,333,0.0,2.0,86,0.00,,---,0.00,VWS V13.01,2013-03-23 04:50:00,
2013-03-23 00:55:00,21.4,17.9,30.06,NNW,333,0.0,2.0,86,0.00,,---,0.00,VWS V13.01,2013-03-23 04:55:00,
2013-03-23 01:00:00,21.4,17.9,30.06,NNW,333,0.0,0.0,86,0.00,,---,0.00,VWS V13.01,2013-03-23 05:00:00,
2013-03-23 01:05:00,21.4,17.9,30.06,NNW,333,0.0,0.0,86,0.00,,---,0.00,VWS V13.01,2013-03-23 05:05:00,
2013-03-23 01:10:00,21.4,17.9,30.05,NNW,333,0.0,0.0,86,0.00,,---,0.00,VWS V13.01,2013-03-23 05:10:00,
2013-03-23 01:15:00,21.3,17.5,30.05,NNW,333,0.0,0.0,85,0.00,,---,0.00,VWS V13.01,2013-03-23 05:15:00,
2013-03-23 01:20:00,21.1,17.3,30.06,NNW,333,0.0,0.0,85,0.00,,---,0.00,VWS V13.01,2013-03-23 05:20:00,
2013-03-23 01:25:00,20.9,17.1,30.06,NNW,333,0.0,1.0,85,0.00,,---,0.00,VWS V13.01,2013-03-23 05:25:00,
2013-03-23 01:30:00,20.8,17.0,30.05,NNW,333,0.0,0.0,85,0.00,,---,0.00,VWS V13.01,2013-03-23 05:30:00,
2013-03-23 01:35:00,20.6,17.1,30.05,NNW,333,0.0,0.0,86,0.00,,---,0.00,VWS V13.01,2013-03-23 05:35:00,
2013-03-23 01:40:00,20.6,17.1,30.06,NNW,333,0.0,0.0,86,0.00,,---,0.00,VWS V13.01,2013-03-23 05:40:00,
2013-03-23 01:45:00,20.5,17.2,30.06,NNW,333,1.0,2.0,87,0.00,,---,0.00,VWS V13.01,2013-03-23 05:45:00,
2013-03-23 01:50:00,20.6,17.4,30.05,NNW,329,0.0,2.0,87,0.00,,---,0.00,VWS V13.01,2013-03-23 05:50:00,
2013-03-23 01:55:00,20.6,17.6,30.05,NNW,329,0.0,2.0,88,0.00,,---,0.00,VWS V13.01,2013-03-23 05:55:00,
2013-03-23 02:00:00,20.7,17.7,30.05,NNW,329,0.0,0.0,88,0.00,,---,0.00,VWS V13.01,2013-03-23 06:00:00,
2013-03-23 02:05:00,20.7,17.7,30.06,NNW,329,0.0,0.0,88,0.00,,---,0.00,VWS V13.01,2013-03-23 06:05:00,
2013-03-23 02:10:00,20.8,17.8,30.06,NNW,329,0.0,1.0,88,0.00,,---,0.00,VWS V13.01,2013-03-23 06:10:00,
2013-03-23 02:15:00,20.9,17.9,30.06,NNW,329,0.0,1.0,88,0.00,,---,0.00,VWS V13.01,2013-03-23 06:15:00,
2013-03-23 02:20:00,20.8,17.5,30.06,NNW,329,0.0,1.0,87,0.00,,---,0.00,VWS V13.01,2013-03-23 06:20:00,
2013-03-23 02:25:00,20.8,17.5,30.06,NNW,329,1.0,1.0,87,0.00,,---,0.00,VWS V13.01,2013-03-23 06:25:00,
2013-03-23 02:30:00,20.7,17.5,30.06,NNW,336,0.0,1.0,87,0.00,,---,0.00,VWS V13.01,2013-03-23 06:30:00,
2013-03-23 02:35:00,20.6,17.4,30.05,NNW,336,1.0,1.0,87,0.00,,---,0.00,VWS V13.01,2013-03-23 06:35:00,
2013-03-23 02:40:00,20.5,17.2,30.05,NNW,336,0.0,1.0,87,0.00,,---,0.00,VWS V13.01,2013-03-23 06:40:00,
2013-03-23 02:45:00,20.4,17.2,30.05,NNW,336,0.0,1.0,87,0.00,,---,0.00,VWS V13.01,2013-03-23 06:45:00,
2013-03-23 02:50:00,20.2,17.0,30.05,NNW,336,0.0,1.0,87,0.00,,---,0.00,VWS V13.01,2013-03-23 06:50:00,
2013-03-23 02:55:00,20.0,16.5,30.05,NNW,336,0.0,1.0,86,0.00,,---,0.00,VWS V13.01,2013-03-23 06:55:00,
2013-03-23 03:00:00,19.9,16.7,30.05,NNW,336,0.0,0.0,87,0.00,,---,0.00,VWS V13.01,2013-03-23 07:00:00,
2013-03-23 03:05:00,19.8,16.6,30.05,NNW,336,0.0,0.0,87,0.00,,---,0.00,VWS V13.01,2013-03-23 07:05:00,
2013-03-23 03:10:00,19.9,16.9,30.05,NNW,336,0.0,0.0,88,0.00,,---,0.00,VWS V13.01,2013-03-23 07:10:00,
2013-03-23 03:15:00,19.9,16.9,30.05,NNW,336,0.0,0.0,88,0.00,,---,0.00,VWS V13.01,2013-03-23 07:15:00,
2013-03-23 03:20:00,19.9,16.9,30.05,NNW,336,0.0,1.0,88,0.00,,---,0.00,VWS V13.01,2013-03-23 07:20:00,
2013-03-23 03:25:00,19.8,16.8,30.05,NNW,336,0.0,1.0,88,0.00,,---,0.00,VWS V13.01,2013-03-23 07:25:00,
2013-03-23 03:30:00,19.7,16.7,30.05,NNW,336,1.0,1.0,88,0.00,,---,0.00,VWS V13.01,2013-03-23 07:30:00,
2013-03-23 03:35:00,19.6,16.6,30.05,NNW,336,0.0,2.0,88,0.00,,---,0.00,VWS V13.01,2013-03-23 07:35:00,
2013-03-23 03:40:00,19.5,16.5,30.05,NNW,336,0.0,2.0,88,0.00,,---,0.00,VWS V13.01,2013-03-23 07:40:00,
2013-03-23 03:45:00,19.4,16.4,30.05,NNW,336,0.0,2.0,88,0.00,,---,0.00,VWS V13.01,2013-03-23 07:45:00,
2013-03-23 03:50:00,19.3,16.3,30.05,NNW,336,0.0,2.0,88,0.00,,---,0.00,VWS V13.01,2013-03-23 07:50:00,
2013-03-23 03:55:00,19.3,16.6,30.05,NNW,336,0.0,2.0,89,0.00,,---,0.00,VWS V13.01,2013-03-23 07:55:00,
2013-03-23 04:00:00,19.3,16.6,30.04,NNW,336,0.0,0.0,89,0.00,,---,0.00,VWS V13.01,2013-03-23 08:00:00,
2013-03-23 04:05:00,19.4,16.7,30.04,NNW,336,0.0,0.0,89,0.00,,---,0.00,VWS V13.01,2013-03-23 08:05:00,
2013-03-23 04:10:00,19.4,17.0,30.04,NNW,336,0.0,0.0,90,0.00,,---,0.00,VWS V13.01,2013-03-23 08:10:00,
2013-03-23 04:15:00,19.4,16.7,30.04,NNW,336,0.0,1.0,89,0.00,,---,0.00,VWS V13.01,2013-03-23 08:15:00,
2013-03-23 04:20:00,19.4,16.7,30.04,NNW,336,0.0,1.0,89,0.00,,---,0.00,VWS V13.01,2013-03-23 08:20:00,
2013-03-23 04:25:00,19.4,16.7,30.04,NNW,336,0.0,1.0,89,0.00,,---,0.00,VWS V13.01,2013-03-23 08:25:00,
2013-03-23 04:30:00,19.4,17.0,30.03,NNW,336,0.0,0.0,90,0.00,,---,0.00,VWS V13.01,2013-03-23 08:30:00,
2013-03-23 04:35:00,19.4,17.0,30.04,NNW,336,0.0,0.0,90,0.00,,---,0.00,VWS V13.01,2013-03-23 08:35:00,
2013-03-23 04:40:00,19.4,17.0,30.03,NNW,336,0.0,2.0,90,0.00,,---,0.00,VWS V13.01,2013-03-23 08:40:00,
2013-03-23 04:45:00,19.4,17.0,30.03,NNW,336,0.0,2.0,90,0.00,,---,0.00,VWS V13.01,2013-03-23 08:45:00,
2013-03-23 04:50:00,19.4,17.0,30.03,NNW,336,0.0,2.0,90,0.00,,---,0.00,VWS V13.01,2013-03-23 08:50:00,
2013-03-23 04:55:00,19.5,17.0,30.03,NNW,336,0.0,2.0,90,0.00,,---,0.00,VWS V13.01,2013-03-23 08:55:00,
2013-03-23 05:00:00,19.6,17.4,30.03,NNW,336,0.0,0.0,91,0.00,,---,0.00,VWS V13.01,2013-03-23 09:00:00,
2013-03-23 05:05:00,19.7,17.5,30.04,NNW,336,0.0,0.0,91,0.00,,---,0.00,VWS V13.01,2013-03-23 09:05:00,
2013-03-23 05:10:00,19.8,17.6,30.04,NNW,336,0.0,0.0,91,0.00,,---,0.00,VWS V13.01,2013-03-23 09:10:00,
2013-03-23 05:15:00,20.0,17.8,30.04,NNW,336,0.0,0.0,91,0.00,,---,0.00,VWS V13.01,2013-03-23 09:15:00,
2013-03-23 05:20:00,20.1,17.9,30.04,NNW,336,0.0,0.0,91,0.00,,---,0.00,VWS V13.01,2013-03-23 09:20:00,
2013-03-23 05:25:00,20.3,18.4,30.03,NNW,336,0.0,0.0,92,0.00,,---,0.00,VWS V13.01,2013-03-23 09:25:00,
2013-03-23 05:30:00,20.3,18.1,30.03,NNW,336,0.0,0.0,91,0.00,,---,0.00,VWS V13.01,2013-03-23 09:30:00,
2013-03-23 05:35:00,20.3,18.1,30.03,NNW,336,0.0,0.0,91,0.00,,---,0.00,VWS V13.01,2013-03-23 09:35:00,
2013-03-23 05:40:00,20.3,18.1,30.03,NNW,336,0.0,0.0,91,0.00,,---,0.00,VWS V13.01,2013-03-23 09:40:00,
2013-03-23 05:45:00,20.2,18.0,30.03,NNW,336,0.0,0.0,91,0.00,,---,0.00,VWS V13.01,2013-03-23 09:45:00,
2013-03-23 05:50:00,20.2,17.7,30.03,NNW,336,0.0,0.0,90,0.00,,---,0.00,VWS V13.01,2013-03-23 09:50:00,
2013-03-23 05:55:00,20.0,17.5,30.03,NNW,336,0.0,0.0,90,0.00,,---,0.00,VWS V13.01,2013-03-23 09:55:00,
2013-03-23 06:00:00,19.9,17.5,30.03,NNW,336,0.0,0.0,90,0.00,,---,0.00,VWS V13.01,2013-03-23 10:00:00,
2013-03-23 06:05:00,19.7,17.2,30.03,NNW,336,0.0,0.0,90,0.00,,---,0.00,VWS V13.01,2013-03-23 10:05:00,
2013-03-23 06:10:00,19.5,17.0,30.03,NNW,336,0.0,0.0,90,0.00,,---,0.00,VWS V13.01,2013-03-23 10:10:00,
2013-03-23 06:15:00,19.4,17.0,30.03,NNW,336,0.0,1.0,90,0.00,,---,0.00,VWS V13.01,2013-03-23 10:15:00,
2013-03-23 06:20:00,19.3,16.9,30.04,NNW,327,0.0,2.0,90,0.00,,---,0.00,VWS V13.01,2013-03-23 10:20:00,
2013-03-23 06:25:00,19.2,16.8,30.04,NNW,327,0.0,2.0,90,0.00,,---,0.00,VWS V13.01,2013-03-23 10:25:00,
2013-03-23 06:30:00,19.1,16.7,30.04,NNW,327,0.0,0.0,90,0.00,,---,0.00,VWS V13.01,2013-03-23 10:30:00,
2013-03-23 06:35:00,19.0,16.6,30.05,NNW,327,1.0,2.0,90,0.00,,---,0.00,VWS V13.01,2013-03-23 10:35:00,
2013-03-23 06:40:00,19.0,16.6,30.05,NNW,327,0.0,2.0,90,0.00,,---,0.00,VWS V13.01,2013-03-23 10:40:00,
2013-03-23 06:45:00,18.9,16.5,30.04,NNW,327,0.0,2.0,90,0.00,,---,0.00,VWS V13.01,2013-03-23 10:45:00,
2013-03-23 06:50:00,18.8,16.4,30.05,NNW,327,0.0,2.0,90,0.00,,---,0.00,VWS V13.01,2013-03-23 10:50:00,
2013-03-23 06:55:00,18.8,16.4,30.05,NNW,327,0.0,2.0,90,0.00,,---,0.00,VWS V13.01,2013-03-23 10:55:00,
2013-03-23 07:00:00,18.7,16.3,30.05,NNW,327,0.0,0.0,90,0.00,,---,0.00,VWS V13.01,2013-03-23 11:00:00,
2013-03-23 07:05:00,18.6,16.2,30.05,NNW,327,0.0,0.0,90,0.00,,---,0.00,VWS V13.01,2013-03-23 11:05:00,
2013-03-23 07:10:00,18.5,16.1,30.05,NNW,327,0.0,0.0,90,0.00,,---,0.00,VWS V13.01,2013-03-23 11:10:00,
2013-03-23 07:15:00,18.5,16.1,30.05,NNW,327,0.0,0.0,90,0.00,,---,0.00,VWS V13.01,2013-03-23 11:15:00,
2013-03-23 07:20:00,18.5,16.1,30.05,NNW,327,0.0,0.0,90,0.00,,---,0.00,VWS V13.01,2013-03-23 11:20:00,
2013-03-23 07:25:00,18.4,16.0,30.05,NNW,327,0.0,0.0,90,0.00,,---,0.00,VWS V13.01,2013-03-23 11:25:00,
2013-03-23 07:30:00,18.5,16.3,30.05,NNW,327,0.0,1.0,91,0.00,,---,0.00,VWS V13.01,2013-03-23 11:30:00,
2013-03-23 07:35:00,18.7,16.5,30.06,NNW,327,0.0,1.0,91,0.00,,---,0.00,VWS V13.01,2013-03-23 11:35:00,
2013-03-23 07:40:00,18.9,16.7,30.05,NNW,327,0.0,1.0,91,0.00,,---,0.00,VWS V13.01,2013-03-23 11:40:00,
2013-03-23 07:45:00,19.0,16.8,30.05,NNW,327,0.0,1.0,91,0.00,,---,0.00,VWS V13.01,2013-03-23 11:45:00,
2013-03-23 07:50:00,19.3,17.1,30.05,NNW,327,0.0,1.0,91,0.00,,---,0.00,VWS V13.01,2013-03-23 11:50:00,
2013-03-23 07:55:00,19.5,17.3,30.06,NNW,327,0.0,1.0,91,0.00,,---,0.00,VWS V13.01,2013-03-23 11:55:00,
2013-03-23 08:00:00,19.9,18.0,30.06,NNW,327,0.0,0.0,92,0.00,,---,0.00,VWS V13.01,2013-03-23 12:00:00,
2013-03-23 08:06:00,20.3,18.4,30.06,NNW,327,0.0,0.0,92,0.00,,---,0.00,VWS V13.01,2013-03-23 12:06:00,
2013-03-23 08:11:00,20.7,18.8,30.06,NNW,327,0.0,0.0,92,0.00,,---,0.00,VWS V13.01,2013-03-23 12:11:00,
2013-03-23 08:16:00,20.9,19.0,30.06,NNW,327,0.0,1.0,92,0.00,,---,0.00,VWS V13.01,2013-03-23 12:16:00,
2013-03-23 08:21:00,21.3,19.3,30.06,NNW,327,0.0,1.0,92,0.00,,---,0.00,VWS V13.01,2013-03-23 12:21:00,
2013-03-23 08:26:00,21.6,19.6,30.06,NNW,327,0.0,1.0,92,0.00,,---,0.00,VWS V13.01,2013-03-23 12:26:00,
2013-03-23 08:31:00,21.9,19.9,30.06,NNW,327,0.0,0.0,92,0.00,,---,0.00,VWS V13.01,2013-03-23 12:31:00,
2013-03-23 08:36:00,22.3,20.3,30.07,NNW,327,0.0,0.0,92,0.00,,---,0.00,VWS V13.01,2013-03-23 12:36:00,
2013-03-23 08:41:00,22.6,20.4,30.07,NNW,327,0.0,0.0,91,0.00,,---,0.00,VWS V13.01,2013-03-23 12:41:00,
2013-03-23 08:46:00,22.9,20.7,30.07,NNW,327,0.0,0.0,91,0.00,,---,0.00,VWS V13.01,2013-03-23 12:46:00,
2013-03-23 08:51:00,23.3,21.1,30.07,NNW,327,0.0,1.0,91,0.00,,---,0.00,VWS V13.01,2013-03-23 12:51:00,
2013-03-23 08:56:00,23.6,21.1,30.07,NNW,327,1.0,1.0,90,0.00,,---,0.00,VWS V13.01,2013-03-23 12:56:00,
2013-03-23 09:01:00,24.1,21.3,30.07,NNW,327,0.0,2.0,89,0.00,,---,0.00,VWS V13.01,2013-03-23 13:01:00,
2013-03-23 09:06:00,24.5,21.7,30.07,NNW,327,0.0,2.0,89,0.00,,---,0.00,VWS V13.01,2013-03-23 13:06:00,
2013-03-23 09:11:00,24.8,21.8,30.08,NW,323,0.0,2.0,88,0.00,,---,0.00,VWS V13.01,2013-03-23 13:11:00,
2013-03-23 09:16:00,25.2,22.1,30.08,WNW,288,0.0,2.0,88,0.00,,---,0.00,VWS V13.01,2013-03-23 13:16:00,
2013-03-23 09:21:00,25.6,22.3,30.08,WNW,288,2.0,3.0,87,0.00,,---,0.00,VWS V13.01,2013-03-23 13:21:00,
2013-03-23 09:26:00,26.0,22.7,30.08,WSW,238,2.0,3.0,87,0.00,,---,0.00,VWS V13.01,2013-03-23 13:26:00,
2013-03-23 09:31:00,26.5,22.6,30.08,SW,219,3.0,3.0,85,0.00,,---,0.00,VWS V13.01,2013-03-23 13:31:00,
2013-03-23 09:36:00,27.2,23.0,30.08,SW,219,2.0,4.0,84,0.00,,---,0.00,VWS V13.01,2013-03-23 13:36:00,
2013-03-23 09:42:00,28.1,23.6,30.08,SW,225,2.0,4.0,83,0.00,,---,0.00,VWS V13.01,2013-03-23 13:42:00,
2013-03-23 09:47:00,28.8,23.7,30.08,SW,219,2.0,4.0,81,0.00,,---,0.00,VWS V13.01,2013-03-23 13:47:00,
2013-03-23 09:52:00,29.4,24.0,30.08,SW,236,2.0,5.0,80,0.00,,---,0.00,VWS V13.01,2013-03-23 13:52:00,
2013-03-23 09:57:00,29.9,23.9,30.08,SW,232,1.0,5.0,78,0.00,,---,0.00,VWS V13.01,2013-03-23 13:57:00,
2013-03-23 10:02:00,30.6,24.0,30.08,SSW,194,1.0,3.0,76,0.00,,---,0.00,VWS V13.01,2013-03-23 14:02:00,
2013-03-23 10:07:00,31.3,24.6,30.08,SW,215,0.0,6.0,76,0.00,,---,0.00,VWS V13.01,2013-03-23 14:07:00,
2013-03-23 10:12:00,31.9,24.2,30.08,SW,215,0.0,6.0,73,0.00,,---,0.00,VWS V13.01,2013-03-23 14:12:00,
2013-03-23 10:17:00,32.6,24.9,30.08,SSW,199,3.0,6.0,73,0.00,,---,0.00,VWS V13.01,2013-03-23 14:17:00,
2013-03-23 10:22:00,33.3,24.6,30.08,South,186,0.0,6.0,70,0.00,,---,0.00,VWS V13.01,2013-03-23 14:22:00,
2013-03-23 10:27:00,34.1,25.4,30.08,SSW,200,3.0,6.0,70,0.00,,---,0.00,VWS V13.01,2013-03-23 14:27:00,
2013-03-23 10:32:00,34.6,25.5,30.08,South,184,1.0,4.0,69,0.00,,---,0.00,VWS V13.01,2013-03-23 14:32:00,
2013-03-23 10:37:00,35.1,25.6,30.08,WSW,251,4.0,5.0,68,0.00,,---,0.00,VWS V13.01,2013-03-23 14:37:00,
2013-03-23 10:42:00,35.3,25.5,30.08,SSW,207,5.0,5.0,67,0.00,,---,0.00,VWS V13.01,2013-03-23 14:42:00,
2013-03-23 10:47:00,35.7,26.2,30.08,South,186,0.0,5.0,68,0.00,,---,0.00,VWS V13.01,2013-03-23 14:47:00,
2013-03-23 10:52:00,36.1,26.2,30.08,SW,225,1.0,5.0,67,0.00,,---,0.00,VWS V13.01,2013-03-23 14:52:00,
2013-03-23 10:57:00,36.4,26.1,30.08,South,185,1.0,5.0,66,0.00,,---,0.00,VWS V13.01,2013-03-23 14:57:00,
2013-03-23 11:02:00,36.8,26.1,30.08,SW,216,4.0,4.0,65,0.00,,---,0.00,VWS V13.01,2013-03-23 15:02:00,
2013-03-23 11:07:00,37.0,25.6,30.08,SSW,206,3.0,4.0,63,0.00,,---,0.00,VWS V13.01,2013-03-23 15:07:00,
2013-03-23 11:12:00,37.5,26.1,30.08,SSE,165,2.0,5.0,63,0.00,,---,0.00,VWS V13.01,2013-03-23 15:12:00,
2013-03-23 11:17:00,37.9,26.5,30.08,WSW,238,0.0,5.0,63,0.00,,---,0.00,VWS V13.01,2013-03-23 15:17:00,
2013-03-23 11:22:00,38.1,26.2,30.08,West,263,0.0,5.0,62,0.00,,---,0.00,VWS V13.01,2013-03-23 15:22:00,
2013-03-23 11:27:00,38.7,26.0,30.08,SW,223,5.0,5.0,60,0.00,,---,0.00,VWS V13.01,2013-03-23 15:27:00,
2013-03-23 11:32:00,38.9,26.6,30.07,SW,230,8.0,8.0,61,0.00,,---,0.00,VWS V13.01,2013-03-23 15:32:00,
2013-03-23 11:37:00,39.1,25.6,30.08,South,187,1.0,8.0,58,0.00,,---,0.00,VWS V13.01,2013-03-23 15:37:00,
2013-03-23 11:42:00,39.5,27.6,30.08,SW,234,2.0,8.0,62,0.00,,---,0.00,VWS V13.01,2013-03-23 15:42:00,
2013-03-23 11:47:00,39.7,26.1,30.08,SW,221,0.0,9.0,58,0.00,,---,0.00,VWS V13.01,2013-03-23 15:47:00,
2013-03-23 11:52:00,39.6,26.1,30.08,South,180,2.0,9.0,58,0.00,,---,0.00,VWS V13.01,2013-03-23 15:52:00,
2013-03-23 11:57:00,39.8,25.8,30.07,NNE,28,0.0,9.0,57,0.00,,---,0.00,VWS V13.01,2013-03-23 15:57:00,
2013-03-23 12:02:00,39.7,24.9,30.07,West,270,0.0,2.0,55,0.00,,---,0.00,VWS V13.01,2013-03-23 16:02:00,
2013-03-23 12:07:00,40.0,26.4,30.07,SSW,213,4.0,6.0,58,0.00,,---,0.00,VWS V13.01,2013-03-23 16:07:00,
2013-03-23 12:12:00,40.3,24.5,30.07,West,273,3.0,9.0,53,0.00,,---,0.00,VWS V13.01,2013-03-23 16:12:00,
2013-03-23 12:17:00,40.5,24.7,30.07,NNW,347,2.0,9.0,53,0.00,,---,0.00,VWS V13.01,2013-03-23 16:17:00,
2013-03-23 12:23:00,40.6,25.3,30.06,West,269,3.0,10.0,54,0.00,,---,0.00,VWS V13.01,2013-03-23 16:23:00,
2013-03-23 12:28:00,41.2,24.9,30.06,West,264,6.0,10.0,52,0.00,,---,0.00,VWS V13.01,2013-03-23 16:28:00,
2013-03-23 12:33:00,40.5,23.3,30.06,WNW,302,1.0,9.0,50,0.00,,---,0.00,VWS V13.01,2013-03-23 16:33:00,
2013-03-23 12:38:00,40.5,25.2,30.06,WNW,288,8.0,9.0,54,0.00,,---,0.00,VWS V13.01,2013-03-23 16:38:00,
2013-03-23 12:43:00,40.5,24.3,30.07,WNW,284,2.0,9.0,52,0.00,,---,0.00,VWS V13.01,2013-03-23 16:43:00,
2013-03-23 12:48:00,40.7,24.0,30.06,WNW,289,2.0,10.0,51,0.00,,---,0.00,VWS V13.01,2013-03-23 16:48:00,
2013-03-23 12:53:00,40.8,24.5,30.06,WNW,283,4.0,10.0,52,0.00,,---,0.00,VWS V13.01,2013-03-23 16:53:00,
2013-03-23 12:58:00,41.4,24.6,30.06,WNW,292,3.0,10.0,51,0.00,,---,0.00,VWS V13.01,2013-03-23 16:58:00,
2013-03-23 13:03:00,41.3,24.1,30.06,SW,233,3.0,8.0,50,0.00,,---,0.00,VWS V13.01,2013-03-23 17:03:00,
2013-03-23 13:08:00,41.5,24.3,30.06,NW,313,6.0,9.0,50,0.00,,---,0.00,VWS V13.01,2013-03-23 17:08:00,
2013-03-23 13:13:00,41.1,23.9,30.05,NW,310,2.0,10.0,50,0.00,,---,0.00,VWS V13.01,2013-03-23 17:13:00,
2013-03-23 13:18:00,41.2,24.0,30.05,NNW,344,5.0,11.0,50,0.00,,---,0.00,VWS V13.01,2013-03-23 17:18:00,
2013-03-23 13:23:00,41.3,24.5,30.05,West,279,4.0,11.0,51,0.00,,---,0.00,VWS V13.01,2013-03-23 17:23:00,
2013-03-23 13:28:00,42.5,26.6,30.05,SW,225,3.0,12.0,53,0.00,,---,0.00,VWS V13.01,2013-03-23 17:28:00,
2013-03-23 13:33:00,43.3,25.4,30.05,SW,232,5.0,12.0,49,0.00,,---,0.00,VWS V13.01,2013-03-23 17:33:00,
2013-03-23 13:38:00,43.7,26.3,30.05,West,280,4.0,14.0,50,0.00,,---,0.00,VWS V13.01,2013-03-23 17:38:00,
2013-03-23 13:43:00,43.9,25.5,30.04,NW,319,8.0,14.0,48,0.00,,---,0.00,VWS V13.01,2013-03-23 17:43:00,
2013-03-23 13:48:00,43.5,24.6,30.04,West,262,0.0,14.0,47,0.00,,---,0.00,VWS V13.01,2013-03-23 17:48:00,
2013-03-23 13:53:00,43.9,26.5,30.04,NW,310,6.0,14.0,50,0.00,,---,0.00,VWS V13.01,2013-03-23 17:53:00,
2013-03-23 13:58:00,43.2,23.8,30.04,West,265,5.0,14.0,46,0.00,,---,0.00,VWS V13.01,2013-03-23 17:58:00,
2013-03-23 14:03:00,43.2,23.8,30.04,West,268,6.0,10.0,46,0.00,,---,0.00,VWS V13.01,2013-03-23 18:03:00,
2013-03-23 14:08:00,42.7,23.4,30.04,NW,322,9.0,13.0,46,0.00,,---,0.00,VWS V13.01,2013-03-23 18:08:00,
2013-03-23 14:13:00,42.5,23.7,30.04,NNW,337,6.0,13.0,47,0.00,,---,0.00,VWS V13.01,2013-03-23 18:13:00,
2013-03-23 14:18:00,42.4,24.1,30.04,NNW,338,4.0,13.0,48,0.00,,---,0.00,VWS V13.01,2013-03-23 18:18:00,
2013-03-23 14:23:00,42.9,24.1,30.04,West,278,4.0,13.0,47,0.00,,---,0.00,VWS V13.01,2013-03-23 18:23:00,
2013-03-23 14:28:00,43.6,25.7,30.03,NNE,14,5.0,13.0,49,0.00,,---,0.00,VWS V13.01,2013-03-23 18:28:00,
2013-03-23 14:33:00,44.0,25.1,30.04,NW,315,6.0,13.0,47,0.00,,---,0.00,VWS V13.01,2013-03-23 18:33:00,
2013-03-23 14:38:00,43.7,23.8,30.04,WNW,297,2.0,13.0,45,0.00,,---,0.00,VWS V13.01,2013-03-23 18:38:00,
2013-03-23 14:43:00,43.9,24.5,30.03,NNW,329,5.0,13.0,46,0.00,,---,0.00,VWS V13.01,2013-03-23 18:43:00,
2013-03-23 14:48:00,43.9,23.4,30.03,NW,314,9.0,13.0,44,0.00,,---,0.00,VWS V13.01,2013-03-23 18:48:00,
2013-03-23 14:53:00,43.6,23.7,30.03,WNW,297,6.0,13.0,45,0.00,,---,0.00,VWS V13.01,2013-03-23 18:53:00,
2013-03-23 14:58:00,44.2,23.7,30.03,NW,318,5.0,16.0,44,0.00,,---,0.00,VWS V13.01,2013-03-23 18:58:00,
2013-03-23 15:03:00,44.3,23.8,30.03,NW,325,8.0,15.0,44,0.00,,---,0.00,VWS V13.01,2013-03-23 19:03:00,
2013-03-23 15:08:00,44.1,23.6,30.03,NW,326,5.0,15.0,44,0.00,,---,0.00,VWS V13.01,2013-03-23 19:08:00,
2013-03-23 15:13:00,44.1,23.0,30.03,WSW,246,7.0,15.0,43,0.00,,---,0.00,VWS V13.01,2013-03-23 19:13:00,
2013-03-23 15:18:00,44.4,24.9,30.02,WNW,284,9.0,15.0,46,0.00,,---,0.00,VWS V13.01,2013-03-23 19:18:00,
2013-03-23 15:23:00,44.7,23.6,30.02,NW,320,6.0,15.0,43,0.00,,---,0.00,VWS V13.01,2013-03-23 19:23:00,
2013-03-23 15:28:00,44.4,23.9,30.02,West,273,12.0,15.0,44,0.00,,---,0.00,VWS V13.01,2013-03-23 19:28:00,
2013-03-23 15:33:00,44.9,23.8,30.02,NW,304,5.0,11.0,43,0.00,,---,0.00,VWS V13.01,2013-03-23 19:33:00,
2013-03-23 15:38:00,45.4,24.2,30.02,WNW,303,4.0,11.0,43,0.00,,---,0.00,VWS V13.01,2013-03-23 19:38:00,
2013-03-23 15:43:00,45.3,23.6,30.02,WNW,284,2.0,11.0,42,0.00,,---,0.00,VWS V13.01,2013-03-23 19:43:00,
2013-03-23 15:48:00,45.6,23.9,30.02,WNW,303,5.0,12.0,42,0.00,,---,0.00,VWS V13.01,2013-03-23 19:48:00,
2013-03-23 15:53:00,45.9,24.1,30.02,NW,326,3.0,12.0,42,0.00,,---,0.00,VWS V13.01,2013-03-23 19:53:00,
2013-03-23 15:58:00,46.1,24.9,30.02,NW,311,6.0,12.0,43,0.00,,---,0.00,VWS V13.01,2013-03-23 19:58:00,
2013-03-23 16:03:00,46.0,23.6,30.02,NE,36,4.0,8.0,41,0.00,,---,0.00,VWS V13.01,2013-03-23 20:03:00,
2013-03-23 16:08:00,45.8,23.5,30.02,West,276,6.0,13.0,41,0.00,,---,0.00,VWS V13.01,2013-03-23 20:08:00,
2013-03-23 16:13:00,46.3,23.9,30.02,NW,305,4.0,13.0,41,0.00,,---,0.00,VWS V13.01,2013-03-23 20:13:00,
2013-03-23 16:18:00,46.2,24.4,30.02,West,269,2.0,13.0,42,0.00,,---,0.00,VWS V13.01,2013-03-23 20:18:00,
2013-03-23 16:23:00,46.0,23.6,30.02,WNW,298,7.0,14.0,41,0.00,,---,0.00,VWS V13.01,2013-03-23 20:23:00,
2013-03-23 16:28:00,46.2,23.2,30.02,NW,321,3.0,14.0,40,0.00,,---,0.00,VWS V13.01,2013-03-23 20:28:00,
2013-03-23 16:33:00,46.1,23.7,30.02,WNW,287,4.0,10.0,41,0.00,,---,0.00,VWS V13.01,2013-03-23 20:33:00,
2013-03-23 16:38:00,46.0,24.2,30.02,WNW,284,6.0,10.0,42,0.00,,---,0.00,VWS V13.01,2013-03-23 20:38:00,
2013-03-23 16:43:00,46.0,23.6,30.02,NNW,333,10.0,15.0,41,0.00,,---,0.00,VWS V13.01,2013-03-23 20:43:00,
2013-03-23 16:48:00,45.7,23.9,30.02,NNW,331,7.0,15.0,42,0.00,,---,0.00,VWS V13.01,2013-03-23 20:48:00,
2013-03-23 16:53:00,45.4,23.1,30.02,NW,313,3.0,15.0,41,0.00,,---,0.00,VWS V13.01,2013-03-23 20:53:00,
2013-03-23 16:58:00,45.3,23.0,30.02,NNW,338,12.0,15.0,41,0.00,,---,0.00,VWS V13.01,2013-03-23 20:58:00,
2013-03-23 17:03:00,45.1,22.8,30.02,WNW,295,6.0,16.0,41,0.00,,---,0.00,VWS V13.01,2013-03-23 21:03:00,
2013-03-23 17:08:00,45.3,23.6,30.02,West,261,6.0,16.0,42,0.00,,---,0.00,VWS V13.01,2013-03-23 21:08:00,
2013-03-23 17:13:00,45.5,23.2,30.02,NW,310,2.0,16.0,41,0.00,,---,0.00,VWS V13.01,2013-03-23 21:13:00,
2013-03-23 17:18:00,45.9,23.5,30.03,West,279,2.0,16.0,41,0.00,,---,0.00,VWS V13.01,2013-03-23 21:18:00,
2013-03-23 17:23:00,46.1,23.1,30.03,North,349,7.0,16.0,40,0.00,,---,0.00,VWS V13.01,2013-03-23 21:23:00,
2013-03-23 17:29:00,45.8,23.5,30.03,NW,309,3.0,16.0,41,0.00,,---,0.00,VWS V13.01,2013-03-23 21:29:00,
2013-03-23 17:34:00,45.6,22.7,30.03,WNW,296,3.0,8.0,40,0.00,,---,0.00,VWS V13.01,2013-03-23 21:34:00,
2013-03-23 17:39:00,45.6,23.9,30.03,West,280,2.0,12.0,42,0.00,,---,0.00,VWS V13.01,2013-03-23 21:39:00,
2013-03-23 17:44:00,45.8,24.0,30.03,SW,233,1.0,13.0,42,0.00,,---,0.00,VWS V13.01,2013-03-23 21:44:00,
2013-03-23 17:49:00,45.8,23.5,30.03,NW,311,4.0,13.0,41,0.00,,---,0.00,VWS V13.01,2013-03-23 21:49:00,
2013-03-23 17:54:00,45.5,23.8,30.03,North,355,3.0,13.0,42,0.00,,---,0.00,VWS V13.01,2013-03-23 21:54:00,
2013-03-23 17:59:00,45.2,23.5,30.03,NW,320,6.0,13.0,42,0.00,,---,0.00,VWS V13.01,2013-03-23 21:59:00,
2013-03-23 18:04:00,45.0,24.4,30.03,North,355,8.0,11.0,44,0.00,,---,0.00,VWS V13.01,2013-03-23 22:04:00,
2013-03-23 18:09:00,44.8,24.2,30.03,NNE,20,7.0,13.0,44,0.00,,---,0.00,VWS V13.01,2013-03-23 22:09:00,
2013-03-23 18:13:00,44.6,24.0,30.03,NE,35,4.0,13.0,44,0.00,,---,0.00,VWS V13.01,2013-03-23 22:13:00,
2013-03-23 18:19:00,44.5,24.0,30.03,WNW,289,5.0,13.0,44,0.00,,---,0.00,VWS V13.01,2013-03-23 22:19:00,
2013-03-23 18:24:00,44.3,23.8,30.04,North,5,8.0,13.0,44,0.00,,---,0.00,VWS V13.01,2013-03-23 22:24:00,
2013-03-23 18:28:00,44.1,24.1,30.04,North,360,11.0,13.0,45,0.00,,---,0.00,VWS V13.01,2013-03-23 22:28:00,
2013-03-23 18:34:00,43.7,24.3,30.04,North,360,7.0,10.0,46,0.00,,---,0.00,VWS V13.01,2013-03-23 22:34:00,
2013-03-23 18:38:00,43.0,24.2,30.04,NNW,338,4.0,11.0,47,0.00,,---,0.00,VWS V13.01,2013-03-23 22:38:00,
2013-03-23 18:43:00,42.5,24.2,30.03,NW,325,4.0,12.0,48,0.00,,---,0.00,VWS V13.01,2013-03-23 22:43:00,
2013-03-23 18:49:00,42.2,24.4,30.04,NNE,14,3.0,12.0,49,0.00,,---,0.00,VWS V13.01,2013-03-23 22:49:00,
2013-03-23 18:54:00,41.8,24.5,30.04,NNE,14,5.0,12.0,50,0.00,,---,0.00,VWS V13.01,2013-03-23 22:54:00,
2013-03-23 18:58:00,41.6,24.4,30.04,NNE,23,8.0,12.0,50,0.00,,---,0.00,VWS V13.01,2013-03-23 22:58:00,
2013-03-23 19:03:00,41.2,24.5,30.04,North,355,5.0,12.0,51,0.00,,---,0.00,VWS V13.01,2013-03-23 23:03:00,
2013-03-23 19:08:00,40.7,24.0,30.04,NW,311,8.0,12.0,51,0.00,,---,0.00,VWS V13.01,2013-03-23 23:08:00,
2013-03-23 19:13:00,40.2,24.0,30.03,NNW,346,10.0,13.0,52,0.00,,---,0.00,VWS V13.01,2013-03-23 23:13:00,
2013-03-23 19:18:00,39.8,24.1,30.04,North,355,5.0,13.0,53,0.00,,---,0.00,VWS V13.01,2013-03-23 23:18:00,
2013-03-23 19:24:00,39.6,23.9,30.04,NNE,23,5.0,13.0,53,0.00,,---,0.00,VWS V13.01,2013-03-23 23:24:00,
2013-03-23 19:29:00,39.4,24.1,30.04,North,355,5.0,13.0,54,0.00,,---,0.00,VWS V13.01,2013-03-23 23:29:00,
2013-03-23 19:34:00,39.1,23.9,30.04,North,355,2.0,6.0,54,0.00,,---,0.00,VWS V13.01,2013-03-23 23:34:00,
2013-03-23 19:39:00,38.8,24.0,30.03,North,349,4.0,6.0,55,0.00,,---,0.00,VWS V13.01,2013-03-23 23:39:00,
2013-03-23 19:44:00,38.5,23.8,30.04,NNE,26,5.0,10.0,55,0.00,,---,0.00,VWS V13.01,2013-03-23 23:44:00,
2013-03-23 19:49:00,38.2,23.9,30.04,North,351,4.0,10.0,56,0.00,,---,0.00,VWS V13.01,2013-03-23 23:49:00,
2013-03-23 19:54:00,38.0,23.7,30.04,NE,44,3.0,10.0,56,0.00,,---,0.00,VWS V13.01,2013-03-23 23:54:00,
2013-03-23 19:59:00,37.7,23.4,30.04,NNE,14,5.0,10.0,56,0.00,,---,0.00,VWS V13.01,2013-03-23 23:59:00,
2013-03-23 20:04:00,37.5,23.7,30.04,North,360,5.0,6.0,57,0.00,,---,0.00,VWS V13.01,2013-03-24 00:04:00,
2013-03-23 20:09:00,37.2,23.4,30.04,NNE,23,2.0,6.0,57,0.00,,---,0.00,VWS V13.01,2013-03-24 00:09:00,
2013-03-23 20:14:00,37.0,23.2,30.05,NNE,16,0.0,6.0,57,0.00,,---,0.00,VWS V13.01,2013-03-24 00:14:00,
2013-03-23 20:19:00,36.7,22.9,30.05,North,10,1.0,6.0,57,0.00,,---,0.00,VWS V13.01,2013-03-24 00:19:00,
2013-03-23 20:24:00,36.4,23.0,30.06,North,11,1.0,6.0,58,0.00,,---,0.00,VWS V13.01,2013-03-24 00:24:00,
2013-03-23 20:29:00,36.2,22.9,30.06,North,9,2.0,6.0,58,0.00,,---,0.00,VWS V13.01,2013-03-24 00:29:00,
2013-03-23 20:34:00,36.0,23.1,30.06,North,355,4.0,7.0,59,0.00,,---,0.00,VWS V13.01,2013-03-24 00:34:00,
2013-03-23 20:39:00,35.8,22.9,30.06,NNE,14,2.0,7.0,59,0.00,,---,0.00,VWS V13.01,2013-03-24 00:39:00,
2013-03-23 20:44:00,35.6,22.7,30.06,North,5,3.0,7.0,59,0.00,,---,0.00,VWS V13.01,2013-03-24 00:44:00,
2013-03-23 20:49:00,35.3,22.8,30.06,North,5,3.0,7.0,60,0.00,,---,0.00,VWS V13.01,2013-03-24 00:49:00,
2013-03-23 20:54:00,35.0,22.5,30.06,NNE,28,4.0,7.0,60,0.00,,---,0.00,VWS V13.01,2013-03-24 00:54:00,
2013-03-23 20:59:00,34.8,22.7,30.07,NNE,13,3.0,7.0,61,0.00,,---,0.00,VWS V13.01,2013-03-24 00:59:00,
2013-03-23 21:04:00,34.6,22.5,30.07,NNE,18,2.0,3.0,61,0.00,,---,0.00,VWS V13.01,2013-03-24 01:04:00,
2013-03-23 21:09:00,34.4,22.4,30.06,NE,49,1.0,3.0,61,0.00,,---,0.00,VWS V13.01,2013-03-24 01:09:00,
2013-03-23 21:14:00,34.2,22.2,30.06,NE,49,0.0,3.0,61,0.00,,---,0.00,VWS V13.01,2013-03-24 01:14:00,
2013-03-23 21:19:00,33.9,22.3,30.06,NE,52,1.0,3.0,62,0.00,,---,0.00,VWS V13.01,2013-03-24 01:19:00,
2013-03-23 21:24:00,33.5,22.3,30.07,NE,46,0.0,3.0,63,0.00,,---,0.00,VWS V13.01,2013-03-24 01:24:00,
2013-03-23 21:29:00,33.3,22.1,30.07,NE,49,1.0,3.0,63,0.00,,---,0.00,VWS V13.01,2013-03-24 01:29:00,
2013-03-23 21:34:00,33.0,22.2,30.06,NE,38,1.0,3.0,64,0.00,,---,0.00,VWS V13.01,2013-03-24 01:34:00,
2013-03-23 21:39:00,32.8,22.0,30.06,NE,48,3.0,3.0,64,0.00,,---,0.00,VWS V13.01,2013-03-24 01:39:00,
2013-03-23 21:44:00,32.6,21.8,30.06,NNE,32,3.0,4.0,64,0.00,,---,0.00,VWS V13.01,2013-03-24 01:44:00,
2013-03-23 21:49:00,32.4,22.0,30.07,NE,35,1.0,4.0,65,0.00,,---,0.00,VWS V13.01,2013-03-24 01:49:00,
2013-03-23 21:54:00,32.2,21.8,30.07,NE,38,1.0,4.0,65,0.00,,---,0.00,VWS V13.01,2013-03-24 01:54:00,
2013-03-23 21:59:00,32.0,21.6,30.07,ENE,74,3.0,4.0,65,0.00,,---,0.00,VWS V13.01,2013-03-24 01:59:00,
2013-03-23 22:04:00,31.7,21.7,30.07,ENE,69,3.0,3.0,66,0.00,,---,0.00,VWS V13.01,2013-03-24 02:04:00,
2013-03-23 22:09:00,31.5,21.8,30.07,ENE,70,4.0,4.0,67,0.00,,---,0.00,VWS V13.01,2013-03-24 02:09:00,
2013-03-23 22:14:00,31.4,21.7,30.07,NE,52,2.0,4.0,67,0.00,,---,0.00,VWS V13.01,2013-03-24 02:14:00,
2013-03-23 22:19:00,31.3,22.0,30.06,ENE,66,2.0,5.0,68,0.00,,---,0.00,VWS V13.01,2013-03-24 02:19:00,
2013-03-23 22:24:00,31.2,21.9,30.07,ENE,59,3.0,5.0,68,0.00,,---,0.00,VWS V13.01,2013-03-24 02:24:00,
2013-03-23 22:29:00,31.2,21.9,30.07,NE,56,2.0,5.0,68,0.00,,---,0.00,VWS V13.01,2013-03-24 02:29:00,
2013-03-23 22:34:00,31.1,21.8,30.07,NE,56,2.0,3.0,68,0.00,,---,0.00,VWS V13.01,2013-03-24 02:34:00,
2013-03-23 22:39:00,31.0,21.7,30.06,NE,38,2.0,3.0,68,0.00,,---,0.00,VWS V13.01,2013-03-24 02:39:00,
2013-03-23 22:44:00,30.7,21.8,30.07,NNE,32,0.0,3.0,69,0.00,,---,0.00,VWS V13.01,2013-03-24 02:44:00,
2013-03-23 22:49:00,30.5,21.6,30.07,NNE,30,3.0,4.0,69,0.00,,---,0.00,VWS V13.01,2013-03-24 02:49:00,
2013-03-23 22:54:00,30.4,21.8,30.07,NNE,30,0.0,4.0,70,0.00,,---,0.00,VWS V13.01,2013-03-24 02:54:00,
2013-03-23 22:59:00,30.3,21.7,30.07,NNE,30,1.0,4.0,70,0.00,,---,0.00,VWS V13.01,2013-03-24 02:59:00,
2013-03-23 23:04:00,30.1,21.5,30.07,NNE,30,0.0,2.0,70,0.00,,---,0.00,VWS V13.01,2013-03-24 03:04:00,
2013-03-23 23:09:00,30.0,21.4,30.07,NNE,30,1.0,2.0,70,0.00,,---,0.00,VWS V13.01,2013-03-24 03:09:00,
2013-03-23 23:14:00,29.8,21.6,30.07,NNE,30,2.0,3.0,71,0.00,,---,0.00,VWS V13.01,2013-03-24 03:14:00,
2013-03-23 23:19:00,29.7,21.5,30.07,NNE,28,1.0,3.0,71,0.00,,---,0.00,VWS V13.01,2013-03-24 03:19:00,
2013-03-23 23:24:00,29.6,21.4,30.06,NE,34,2.0,4.0,71,0.00,,---,0.00,VWS V13.01,2013-03-24 03:24:00,
2013-03-23 23:29:00,29.6,21.4,30.07,NNE,30,1.0,4.0,71,0.00,,---,0.00,VWS V13.01,2013-03-24 03:29:00,
2013-03-23 23:34:00,29.6,21.4,30.07,NNE,30,2.0,2.0,71,0.00,,---,0.00,VWS V13.01,2013-03-24 03:34:00,
2013-03-23 23:39:00,29.6,21.4,30.06,NNE,28,2.0,4.0,71,0.00,,---,0.00,VWS V13.01,2013-03-24 03:39:00,
2013-03-23 23:44:00,29.5,21.3,30.06,NE,34,2.0,4.0,71,0.00,,---,0.00,VWS V13.01,2013-03-24 03:44:00,
2013-03-23 23:49:00,29.4,21.2,30.06,NE,51,1.0,4.0,71,0.00,,---,0.00,VWS V13.01,2013-03-24 03:49:00,
2013-03-23 23:54:00,29.3,21.1,30.06,NE,51,1.0,4.0,71,0.00,,---,0.00,VWS V13.01,2013-03-24 03:54:00,
2013-03-23 23:59:00,29.2,21.0,30.05,NE,51,2.0,4.0,71,0.00,,---,0.00,VWS V13.01,2013-03-24 03:59:00,